createdAt,value
2019-03-11T00:02:05.400Z,96854.39
2019-03-11T00:04:36.741Z,96852.41
2019-03-11T00:07:08.161Z,96850.42
2019-03-11T00:09:39.669Z,96847.58
2019-03-11T00:12:11.003Z,96842.52
2019-03-11T00:14:43.607Z,96846.55
2019-03-11T00:17:15.952Z,96852.97
2019-03-11T00:19:47.222Z,96849.94
2019-03-11T00:22:18.654Z,96847.55
2019-03-11T00:24:50.973Z,96857.25
2019-03-11T00:27:22.567Z,96852.17
2019-03-11T00:29:53.914Z,96861.13
2019-03-11T00:32:25.027Z,96857.36
2019-03-11T00:34:56.351Z,96861.03
2019-03-11T00:37:27.430Z,96867.53
2019-03-11T00:39:58.438Z,96872.72
2019-03-11T00:42:29.500Z,96875.03
2019-03-11T00:45:00.555Z,96873.67
2019-03-11T00:47:31.873Z,96868.24
2019-03-11T00:50:05.252Z,96864.69
2019-03-11T00:52:37.602Z,96866.58
2019-03-11T00:55:09.147Z,96861.06
2019-03-11T00:57:40.227Z,96865.90
2019-03-11T01:00:21.278Z,96864.75
2019-03-11T01:02:52.805Z,96865.45
2019-03-11T01:05:24.018Z,96856.91
2019-03-11T01:07:55.420Z,96861.36
2019-03-11T01:10:26.500Z,96856.72
2019-03-11T01:12:58.246Z,96862.73
2019-03-11T01:15:29.575Z,96852.96
2019-03-11T01:18:01.042Z,96842.45
2019-03-11T01:20:32.017Z,96847.59
2019-03-11T01:23:04.608Z,96845.64
2019-03-11T01:25:35.595Z,96835.27
2019-03-11T01:28:07.050Z,96832.89
2019-03-11T01:30:38.125Z,96832.13
2019-03-11T01:33:09.139Z,96827.64
2019-03-11T01:35:40.217Z,96819.05
2019-03-11T01:38:11.502Z,96816.64
2019-03-11T01:40:42.949Z,96814.30
2019-03-11T01:43:14.035Z,96808.89
2019-03-11T01:45:45.039Z,96801.09
2019-03-11T01:48:16.292Z,96788.50
2019-03-11T01:50:47.528Z,96788.12
2019-03-11T01:53:18.796Z,96781.28
2019-03-11T01:55:49.776Z,96781.77
2019-03-11T01:58:20.768Z,96777.37
2019-03-11T02:00:52.989Z,96780.70
2019-03-11T02:03:24.578Z,96771.81
2019-03-11T02:05:55.562Z,96772.72
2019-03-11T02:08:26.679Z,96766.55
2019-03-11T02:10:57.719Z,96757.20
2019-03-11T02:13:28.700Z,96752.43
2019-03-11T02:15:59.716Z,96757.69
2019-03-11T02:18:30.758Z,96752.03
2019-03-11T02:21:01.740Z,96747.93
2019-03-11T02:23:33.317Z,96739.92
2019-03-11T02:26:05.335Z,96731.48
2019-03-11T02:28:36.418Z,96723.51
2019-03-11T02:31:07.487Z,96714.19
2019-03-11T02:33:38.850Z,96708.46
2019-03-11T02:36:09.955Z,96701.16
2019-03-11T02:38:42.138Z,96700.67
2019-03-11T02:41:13.469Z,96689.89
2019-03-11T02:44:41.915Z,96686.39
2019-03-11T02:47:13.226Z,96696.62
2019-03-11T02:49:44.395Z,96683.02
2019-03-11T02:52:15.384Z,96670.56
2019-03-11T02:54:46.482Z,96666.88
2019-03-11T02:57:17.458Z,96668.65
2019-03-11T02:59:48.463Z,96670.99
2019-03-11T03:02:57.012Z,96668.06
2019-03-11T03:05:41.459Z,96658.91
2019-03-11T03:08:12.860Z,96650.54
2019-03-11T03:10:44.012Z,96654.04
2019-03-11T03:13:15.184Z,96650.11
2019-03-11T03:15:46.540Z,96652.67
2019-03-11T03:18:19.574Z,96649.55
2019-03-11T03:20:50.576Z,96654.34
2019-03-11T03:23:21.813Z,96647.80
2019-03-11T03:25:52.848Z,96656.11
2019-03-11T03:28:23.808Z,96653.39
2019-03-11T03:30:55.243Z,96646.91
2019-03-11T03:33:26.214Z,96649.77
2019-03-11T03:35:57.589Z,96645.98
2019-03-11T03:38:31.367Z,96650.23
2019-03-11T03:41:03.151Z,96655.08
2019-03-11T03:43:34.469Z,96650.05
2019-03-11T03:46:18.083Z,96658.86
2019-03-11T03:48:39.278Z,96650.59
2019-03-11T03:51:10.430Z,96652.39
2019-03-11T03:53:41.481Z,96654.29
2019-03-11T03:56:12.767Z,96650.13
2019-03-11T03:58:44.347Z,96646.02
2019-03-11T04:01:15.426Z,96639.08
2019-03-11T04:03:46.438Z,96634.41
2019-03-11T04:06:17.592Z,96629.14
2019-03-11T04:08:48.575Z,96623.14
2019-03-11T04:11:19.562Z,96624.33
2019-03-11T04:13:50.958Z,96616.66
2019-03-11T04:16:22.027Z,96612.54
2019-03-11T04:18:55.769Z,96622.45
2019-03-11T04:21:26.978Z,96623.84
2019-03-11T04:23:58.742Z,96621.81
2019-03-11T04:26:31.279Z,96622.02
2019-03-11T04:29:02.345Z,96622.02
2019-03-11T04:31:34.585Z,96622.66
2019-03-11T04:34:05.942Z,96627.23
2019-03-11T04:36:37.207Z,96611.83
2019-03-11T04:39:08.577Z,96601.56
2019-03-11T04:41:39.825Z,96606.61
2019-03-11T04:44:10.791Z,96592.22
2019-03-11T04:46:42.745Z,96586.46
2019-03-11T04:49:13.845Z,96580.78
2019-03-11T04:51:44.907Z,96558.52
2019-03-11T04:54:16.569Z,96528.88
2019-03-11T04:56:47.831Z,96522.62
2019-03-11T04:59:18.851Z,96523.88
2019-03-11T05:01:49.803Z,96523.94
2019-03-11T05:04:21.020Z,96538.26
2019-03-11T05:06:52.520Z,96560.16
2019-03-11T05:09:23.777Z,96572.27
2019-03-11T05:11:54.795Z,96568.71
2019-03-11T05:14:25.801Z,96574.67
2019-03-11T05:16:57.302Z,96553.12
2019-03-11T05:19:28.855Z,96564.87
2019-03-11T05:22:00.127Z,96575.29
2019-03-11T05:24:31.368Z,96581.52
2019-03-11T05:27:03.010Z,96585.52
2019-03-11T05:29:35.178Z,96586.25
2019-03-11T05:32:06.448Z,96583.47
2019-03-11T05:34:37.760Z,96574.58
2019-03-11T05:37:08.753Z,96583.06
2019-03-11T05:39:40.001Z,96559.98
2019-03-11T05:42:11.264Z,96587.11
2019-03-11T05:44:42.256Z,96568.77
2019-03-11T05:47:13.581Z,96583.05
2019-03-11T05:49:44.862Z,96574.24
2019-03-11T05:52:16.349Z,96562.84
2019-03-11T05:54:47.336Z,96566.36
2019-03-11T05:57:18.351Z,96571.26
2019-03-11T05:59:49.434Z,96552.27
2019-03-11T06:02:20.583Z,96565.33
2019-03-11T06:04:52.157Z,96565.91
2019-03-11T06:07:23.990Z,96560.23
2019-03-11T06:09:56.110Z,96562.13
2019-03-11T06:12:27.414Z,96558.92
2019-03-11T06:14:58.414Z,96547.30
2019-03-11T06:17:30.495Z,96543.25
2019-03-11T06:20:39.879Z,96541.59
2019-03-11T06:23:12.119Z,96554.36
2019-03-11T06:25:43.469Z,96562.48
2019-03-11T06:28:14.969Z,96570.35
2019-03-11T06:30:45.975Z,96570.45
2019-03-11T06:33:17.268Z,96569.02
2019-03-11T06:35:48.276Z,96562.33
2019-03-11T06:38:19.520Z,96560.71
2019-03-11T06:40:50.535Z,96573.80
2019-03-11T06:43:21.525Z,96582.40
2019-03-11T06:45:53.206Z,96596.14
2019-03-11T06:48:24.293Z,96604.00
2019-03-11T06:50:55.524Z,96612.86
2019-03-11T06:53:26.577Z,96624.50
2019-03-11T06:55:57.613Z,96624.59
2019-03-11T06:58:28.589Z,96611.52
2019-03-11T07:00:59.827Z,96608.95
2019-03-11T07:03:31.137Z,96602.65
2019-03-11T07:06:06.765Z,96614.69
2019-03-11T07:08:37.750Z,96609.77
2019-03-11T07:11:09.283Z,96615.18
2019-03-11T07:13:40.693Z,96615.18
2019-03-11T07:16:11.683Z,96630.63
2019-03-11T07:18:43.975Z,96620.14
2019-03-11T07:21:15.572Z,96614.22
2019-03-11T07:23:46.645Z,96622.09
2019-03-11T07:26:17.728Z,96632.95
2019-03-11T07:28:49.017Z,96635.42
2019-03-11T07:31:20.260Z,96647.23
2019-03-11T07:33:51.322Z,96643.39
2019-03-11T07:36:22.556Z,96643.31
2019-03-11T07:38:54.225Z,96636.95
2019-03-11T07:41:25.951Z,96634.52
2019-03-11T07:43:57.120Z,96630.25
2019-03-11T07:46:28.526Z,96651.41
2019-03-11T07:48:59.503Z,96659.77
2019-03-11T07:51:30.557Z,96667.91
2019-03-11T07:54:01.545Z,96646.27
2019-03-11T07:56:32.771Z,96670.95
2019-03-11T07:59:05.072Z,96690.58
2019-03-11T08:01:36.135Z,96698.24
2019-03-11T08:04:07.443Z,96711.56
2019-03-11T08:06:38.432Z,96735.27
2019-03-11T08:09:10.802Z,96731.53
2019-03-11T08:11:41.790Z,96717.05
2019-03-11T08:14:13.073Z,96720.36
2019-03-11T08:16:44.048Z,96723.80
2019-03-11T08:19:15.083Z,96720.61
2019-03-11T08:21:46.406Z,96707.94
2019-03-11T08:24:17.957Z,96715.98
2019-03-11T08:26:49.228Z,96708.20
2019-03-11T08:29:20.536Z,96707.94
2019-03-11T08:31:51.876Z,96707.34
2019-03-11T08:34:23.367Z,96704.61
2019-03-11T08:36:54.348Z,96705.83
2019-03-11T08:39:26.496Z,96719.03
2019-03-11T08:41:57.525Z,96717.06
2019-03-11T08:44:28.570Z,96720.82
2019-03-11T08:47:00.067Z,96727.14
2019-03-11T08:49:31.316Z,96717.73
2019-03-11T08:52:02.379Z,96723.26
2019-03-11T08:54:33.619Z,96717.72
2019-03-11T08:57:05.581Z,96728.12
2019-03-11T08:59:36.552Z,96728.35
2019-03-11T09:02:07.965Z,96720.48
2019-03-11T09:04:39.016Z,96720.30
2019-03-11T09:07:10.010Z,96720.52
2019-03-11T09:09:41.755Z,96728.10
2019-03-11T09:12:12.965Z,96726.57
2019-03-11T09:14:44.498Z,96727.41
2019-03-11T09:17:15.569Z,96732.33
2019-03-11T09:19:46.575Z,96734.46
2019-03-11T09:22:17.806Z,96728.97
2019-03-11T09:24:48.793Z,96724.36
2019-03-11T09:27:20.129Z,96731.06
2019-03-11T09:29:51.172Z,96739.78
2019-03-11T09:32:22.424Z,96732.38
2019-03-11T09:34:54.056Z,96721.00
2019-03-11T09:37:25.362Z,96724.18
2019-03-11T09:39:56.575Z,96725.78
2019-03-11T09:42:27.564Z,96735.53
2019-03-11T09:44:59.138Z,96749.14
2019-03-11T09:47:30.397Z,96737.77
2019-03-11T09:50:01.748Z,96735.39
2019-03-11T09:52:32.737Z,96748.63
2019-03-11T09:55:03.783Z,96749.96
2019-03-11T09:57:35.445Z,96744.34
2019-03-11T10:00:14.169Z,96750.28
2019-03-11T10:02:52.430Z,96753.58
2019-03-11T10:05:18.411Z,96755.36
2019-03-11T10:07:49.377Z,96765.75
2019-03-11T10:10:20.904Z,96773.88
2019-03-11T10:12:52.028Z,96785.78
2019-03-11T10:15:23.155Z,96778.94
2019-03-11T10:17:54.625Z,96775.47
2019-03-11T10:20:25.965Z,96777.63
2019-03-11T10:22:56.969Z,96771.90
2019-03-11T10:25:28.173Z,96779.69
2019-03-11T10:27:59.330Z,96780.00
2019-03-11T10:30:30.524Z,96786.23
2019-03-11T10:33:01.622Z,96786.43
2019-03-11T10:35:33.301Z,96789.75
2019-03-11T10:38:05.705Z,96793.08
2019-03-11T10:40:36.932Z,96795.76
2019-03-11T10:43:08.113Z,96800.64
2019-03-11T10:45:39.133Z,96798.88
2019-03-11T10:48:10.538Z,96790.06
2019-03-11T10:50:41.903Z,96788.02
2019-03-11T10:53:12.888Z,96792.70
2019-03-11T10:55:44.008Z,96802.33
2019-03-11T10:58:15.325Z,96798.78
2019-03-11T11:00:46.672Z,96797.91
2019-03-11T11:03:18.352Z,96821.39
2019-03-11T11:05:49.312Z,96821.02
2019-03-11T11:08:20.697Z,96819.91
2019-03-11T11:10:51.678Z,96821.86
2019-03-11T11:13:22.698Z,96826.94
2019-03-11T11:15:53.729Z,96833.22
2019-03-11T11:18:24.786Z,96837.58
2019-03-11T11:20:55.829Z,96824.36
2019-03-11T11:23:27.345Z,96826.91
2019-03-11T11:25:58.749Z,96827.05
2019-03-11T11:28:29.797Z,96842.17
2019-03-11T11:31:00.821Z,96828.86
2019-03-11T11:33:32.082Z,96843.13
2019-03-11T11:36:03.968Z,96841.43
2019-03-11T11:38:35.764Z,96846.42
2019-03-11T11:41:06.991Z,96839.77
2019-03-11T11:43:38.000Z,96856.40
2019-03-11T11:46:09.062Z,96860.14
2019-03-11T11:48:40.764Z,96868.34
2019-03-11T11:51:11.787Z,96872.48
2019-03-11T11:53:42.862Z,96881.94
2019-03-11T11:56:14.404Z,96876.64
2019-03-11T11:58:46.470Z,96879.97
2019-03-11T12:01:17.571Z,96875.87
2019-03-11T12:03:48.610Z,96877.61
2019-03-11T12:06:19.831Z,96882.14
2019-03-11T12:08:50.811Z,96875.95
2019-03-11T12:11:23.067Z,96875.39
2019-03-11T12:13:56.163Z,96872.00
2019-03-11T12:16:27.143Z,96871.47
2019-03-11T12:18:58.116Z,96879.22
2019-03-11T12:21:35.010Z,96880.79
2019-03-11T12:24:35.899Z,96882.71
2019-03-11T12:27:07.056Z,96885.64
2019-03-11T12:29:38.384Z,96880.72
2019-03-11T12:32:10.121Z,96878.02
2019-03-11T12:34:41.245Z,96861.76
2019-03-11T12:37:12.850Z,96874.32
2019-03-11T12:39:44.094Z,96868.80
2019-03-11T12:42:15.222Z,96867.98
2019-03-11T12:44:46.783Z,96863.14
2019-03-11T12:47:17.871Z,96870.16
2019-03-11T12:49:49.167Z,96869.52
2019-03-11T12:52:20.904Z,96873.89
2019-03-11T12:54:52.482Z,96884.45
2019-03-11T12:57:24.133Z,96880.79
2019-03-11T13:00:16.685Z,96891.61
2019-03-11T13:02:47.836Z,96885.80
2019-03-11T13:05:20.357Z,96876.53
2019-03-11T13:07:51.422Z,96869.62
2019-03-11T13:10:22.667Z,96887.67
2019-03-11T13:12:54.058Z,96887.52
2019-03-11T13:15:25.467Z,96888.88
2019-03-11T13:17:56.548Z,96900.91
2019-03-11T13:20:31.707Z,96907.29
2019-03-11T13:23:02.705Z,96898.77
2019-03-11T13:25:34.467Z,96884.48
2019-03-11T13:28:06.517Z,96899.37
2019-03-11T13:30:37.631Z,96925.29
2019-03-11T13:33:08.663Z,96916.27
2019-03-11T13:35:39.711Z,96917.91
2019-03-11T13:38:10.813Z,96921.31
2019-03-11T13:40:41.959Z,96919.00
2019-03-11T13:43:13.059Z,96921.63
2019-03-11T13:45:44.724Z,96923.23
2019-03-11T13:48:16.054Z,96922.94
2019-03-11T13:50:47.007Z,96948.36
2019-03-11T13:53:17.998Z,96940.15
2019-03-11T13:55:49.119Z,96941.53
2019-03-11T13:58:20.496Z,96951.24
2019-03-11T14:00:56.753Z,96947.38
2019-03-11T14:03:24.818Z,96950.19
2019-03-11T14:05:56.480Z,96941.05
2019-03-11T14:08:28.102Z,96943.07
2019-03-11T14:10:59.431Z,96950.09
2019-03-11T14:13:30.661Z,96950.67
2019-03-11T14:16:02.077Z,96947.48
2019-03-11T14:18:33.301Z,96950.23
2019-03-11T14:21:04.790Z,96957.76
2019-03-11T14:23:36.436Z,96958.06
2019-03-11T14:26:08.029Z,96973.30
2019-03-11T14:28:39.033Z,96984.75
2019-03-11T14:31:10.658Z,96996.73
2019-03-11T14:33:41.728Z,96983.30
2019-03-11T14:36:13.330Z,96992.38
2019-03-11T14:38:44.634Z,97005.73
2019-03-11T14:41:15.581Z,96997.48
2019-03-11T14:43:46.909Z,97007.94
2019-03-11T14:46:18.204Z,97012.78
2019-03-11T14:48:49.368Z,97003.13
2019-03-11T14:51:20.356Z,97003.47
2019-03-11T14:53:51.613Z,97004.29
2019-03-11T14:56:23.795Z,97006.42
2019-03-11T14:58:54.776Z,97001.56
2019-03-11T15:01:25.895Z,96996.25
2019-03-11T15:03:57.173Z,96999.44
2019-03-11T15:06:28.326Z,96999.89
2019-03-11T15:08:59.976Z,96998.69
2019-03-11T15:11:31.694Z,97003.52
2019-03-11T15:14:02.995Z,97009.36
2019-03-11T15:16:34.003Z,97010.56
2019-03-11T15:19:06.305Z,97007.63
2019-03-11T15:21:37.419Z,97001.32
2019-03-11T15:24:09.122Z,96994.80
2019-03-11T15:26:40.590Z,97003.28
2019-03-11T15:29:12.724Z,97010.84
2019-03-11T15:31:43.944Z,97008.53
2019-03-11T15:34:15.281Z,97020.88
2019-03-11T15:36:46.712Z,97032.85
2019-03-11T15:39:17.779Z,97033.22
2019-03-11T15:41:49.233Z,97043.47
2019-03-11T15:44:20.591Z,97043.88
2019-03-11T15:46:52.172Z,97047.14
2019-03-11T15:49:23.183Z,97056.29
2019-03-11T15:51:55.008Z,97068.05
2019-03-11T15:54:25.997Z,97078.97
2019-03-11T15:56:57.390Z,97092.42
2019-03-11T15:59:28.670Z,97098.13
2019-03-11T16:01:59.699Z,97090.63
2019-03-11T16:04:30.916Z,97076.26
2019-03-11T16:07:01.977Z,97076.09
2019-03-11T16:09:33.245Z,97055.18
2019-03-11T16:12:04.618Z,97052.02
2019-03-11T16:14:36.431Z,97051.73
2019-03-11T16:17:07.611Z,97048.14
2019-03-11T16:19:38.602Z,97057.01
2019-03-11T16:22:09.976Z,97062.07
2019-03-11T16:24:41.556Z,97063.73
2019-03-11T16:27:12.864Z,97072.59
2019-03-11T16:29:44.124Z,97073.02
2019-03-11T16:32:37.315Z,97076.91
2019-03-11T16:35:07.515Z,97076.64
2019-03-11T16:37:38.710Z,97070.62
2019-03-11T16:40:10.893Z,97082.53
2019-03-11T16:42:43.204Z,97083.44
2019-03-11T16:45:14.860Z,97075.38
2019-03-11T16:47:45.953Z,97074.81
2019-03-11T16:50:17.599Z,97076.30
2019-03-11T16:52:49.416Z,97071.17
2019-03-11T16:55:23.330Z,97077.20
2019-03-11T16:57:54.927Z,97068.89
2019-03-11T17:00:30.458Z,97073.34
2019-03-11T17:03:02.002Z,97081.02
2019-03-11T17:05:33.752Z,97084.36
2019-03-11T17:08:04.869Z,97092.70
2019-03-11T17:10:36.945Z,97098.69
2019-03-11T17:13:08.193Z,97087.39
2019-03-11T17:15:39.239Z,97091.77
2019-03-11T17:18:10.578Z,97099.29
2019-03-11T17:20:41.932Z,97090.94
2019-03-11T17:23:13.008Z,97086.80
2019-03-11T17:25:44.360Z,97095.48
2019-03-11T17:28:17.730Z,97101.50
2019-03-11T17:30:48.886Z,97110.72
2019-03-11T17:33:19.967Z,97111.72
2019-03-11T17:35:51.305Z,97118.89
2019-03-11T17:38:22.910Z,97125.06
2019-03-11T17:40:53.963Z,97125.52
2019-03-11T17:43:25.300Z,97132.77
2019-03-11T17:45:56.950Z,97140.11
2019-03-11T17:48:28.498Z,97148.53
2019-03-11T17:51:00.046Z,97150.48
2019-03-11T17:53:32.089Z,97153.24
2019-03-11T17:56:03.495Z,97159.16
2019-03-11T17:58:34.919Z,97153.39
2019-03-11T18:01:07.653Z,97166.63
2019-03-11T18:03:39.065Z,97177.14
2019-03-11T18:06:11.958Z,97186.65
2019-03-11T18:08:44.730Z,97194.83
2019-03-11T18:11:16.199Z,97196.81
2019-03-11T18:13:47.692Z,97198.92
2019-03-11T18:16:19.367Z,97196.33
2019-03-11T18:18:51.424Z,97194.05
2019-03-11T18:21:23.079Z,97199.72
2019-03-11T18:23:54.470Z,97199.04
2019-03-11T18:26:26.104Z,97196.75
2019-03-11T18:28:57.382Z,97202.53
2019-03-11T18:31:29.406Z,97195.63
2019-03-11T18:34:00.509Z,97197.64
2019-03-11T18:36:31.835Z,97203.75
2019-03-11T18:39:03.002Z,97209.67
2019-03-11T18:41:37.132Z,97213.27
2019-03-11T18:44:08.160Z,97224.59
2019-03-11T18:46:39.486Z,97211.43
2019-03-11T18:49:10.918Z,97230.21
2019-03-11T18:51:43.263Z,97236.13
2019-03-11T18:54:14.304Z,97235.81
2019-03-11T18:56:45.817Z,97234.86
2019-03-11T18:59:16.822Z,97245.28
2019-03-11T19:01:48.491Z,97243.91
2019-03-11T19:04:19.618Z,97245.56
2019-03-11T19:06:51.014Z,97254.23
2019-03-11T19:09:22.288Z,97241.15
2019-03-11T19:11:53.297Z,97241.31
2019-03-11T19:14:24.275Z,97257.02
2019-03-11T19:16:55.608Z,97261.12
2019-03-11T19:19:26.887Z,97250.86
2019-03-11T19:21:58.237Z,97254.89
2019-03-11T19:24:29.581Z,97254.39
2019-03-11T19:27:00.773Z,97265.16
2019-03-11T19:29:32.156Z,97262.69
2019-03-11T19:32:04.887Z,97265.82
2019-03-11T19:34:37.545Z,97274.77
2019-03-11T19:37:08.699Z,97280.60
2019-03-11T19:39:39.638Z,97276.19
2019-03-11T19:42:10.809Z,97289.25
2019-03-11T19:44:42.117Z,97290.23
2019-03-11T19:47:13.648Z,97287.67
2019-03-11T19:49:44.591Z,97279.50
2019-03-11T19:52:16.744Z,97282.70
2019-03-11T19:54:48.015Z,97288.45
2019-03-11T19:57:19.390Z,97277.25
2019-03-11T19:59:50.420Z,97275.59
2019-03-11T20:02:24.280Z,97282.06
2019-03-11T20:04:54.431Z,97292.44
2019-03-11T20:07:26.041Z,97300.17
2019-03-11T20:09:57.438Z,97290.99
2019-03-11T20:12:28.612Z,97288.18
2019-03-11T20:14:59.605Z,97303.25
2019-03-11T20:17:31.145Z,97308.04
2019-03-11T20:20:02.240Z,97315.34
2019-03-11T20:22:33.434Z,97313.05
2019-03-11T20:25:05.602Z,97315.02
2019-03-11T20:27:37.170Z,97311.60
2019-03-11T20:30:14.914Z,97305.26
2019-03-11T20:32:46.488Z,97323.22
2019-03-11T20:35:18.367Z,97319.58
2019-03-11T20:37:51.340Z,97314.70
2019-03-11T20:40:22.455Z,97328.27
2019-03-11T20:42:53.612Z,97321.29
2019-03-11T20:45:24.810Z,97320.94
2019-03-11T20:47:56.483Z,97343.50
2019-03-11T20:50:28.113Z,97344.97
2019-03-11T20:53:00.441Z,97334.48
2019-03-11T20:55:34.031Z,97344.14
2019-03-11T20:58:04.222Z,97341.05
2019-03-11T21:00:35.816Z,97341.34
2019-03-11T21:03:08.262Z,97349.52
2019-03-11T21:05:39.660Z,97332.87
2019-03-11T21:08:10.932Z,97340.73
2019-03-11T21:10:42.797Z,97352.30
2019-03-11T21:13:15.183Z,97349.56
2019-03-11T21:15:46.338Z,97355.13
2019-03-11T21:18:17.469Z,97372.63
2019-03-11T21:20:49.100Z,97356.76
2019-03-11T21:23:20.346Z,97366.91
2019-03-11T21:25:51.322Z,97380.16
2019-03-11T21:28:24.002Z,97367.26
2019-03-11T21:30:55.401Z,97362.48
2019-03-11T21:33:27.176Z,97372.48
2019-03-11T21:35:58.379Z,97370.50
2019-03-11T21:38:29.415Z,97377.04
2019-03-11T21:41:00.539Z,97377.03
2019-03-11T21:43:32.065Z,97377.18
2019-03-11T21:46:03.473Z,97381.63
2019-03-11T21:48:35.527Z,97373.13
2019-03-11T21:51:07.538Z,97376.71
2019-03-11T21:53:39.078Z,97390.44
2019-03-11T21:56:10.408Z,97377.05
2019-03-11T21:58:41.634Z,97376.41
2019-03-11T22:01:13.941Z,97399.43
2019-03-11T22:03:45.489Z,97396.34
2019-03-11T22:06:16.590Z,97399.43
2019-03-11T22:08:48.207Z,97401.09
2019-03-11T22:11:19.896Z,97402.20
2019-03-11T22:13:51.623Z,97394.36
2019-03-11T22:16:23.109Z,97404.50
2019-03-11T22:18:54.480Z,97403.35
2019-03-11T22:21:25.950Z,97402.55
2019-03-11T22:23:57.418Z,97396.49
2019-03-11T22:26:28.898Z,97410.05
2019-03-11T22:28:59.876Z,97412.19
2019-03-11T22:31:31.133Z,97411.35
2019-03-11T22:34:02.358Z,97408.36
2019-03-11T22:36:33.371Z,97411.31
2019-03-11T22:39:05.376Z,97413.80
2019-03-11T22:41:37.801Z,97416.58
2019-03-11T22:44:09.024Z,97410.56
2019-03-11T22:46:40.914Z,97412.03
2019-03-11T22:49:12.410Z,97411.03
2019-03-11T22:51:44.013Z,97415.61
2019-03-11T22:54:15.522Z,97421.62
2019-03-11T22:56:46.789Z,97417.97
2019-03-11T22:59:17.878Z,97416.69
2019-03-11T23:01:53.910Z,97418.03
2019-03-11T23:04:25.690Z,97416.21
2019-03-11T23:06:56.799Z,97409.51
2019-03-11T23:09:28.370Z,97413.08
2019-03-11T23:11:59.741Z,97406.59
2019-03-11T23:14:31.204Z,97414.03
2019-03-11T23:17:02.491Z,97415.51
2019-03-11T23:19:33.861Z,97416.20
2019-03-11T23:22:04.836Z,97429.27
2019-03-11T23:24:36.364Z,97426.35
2019-03-11T23:27:07.658Z,97431.42
2019-03-11T23:29:39.251Z,97436.97
2019-03-11T23:32:11.055Z,97437.45
2019-03-11T23:34:43.522Z,97440.74
2019-03-11T23:37:14.564Z,97444.78
2019-03-11T23:39:45.874Z,97450.38
2019-03-11T23:42:17.384Z,97452.66
2019-03-11T23:44:48.377Z,97452.00
2019-03-11T23:47:19.324Z,97449.59
2019-03-11T23:49:50.362Z,97452.19
2019-03-11T23:52:21.795Z,97459.05
2019-03-11T23:54:52.776Z,97458.08
2019-03-11T23:57:24.403Z,97463.14
2019-03-11T23:59:55.769Z,97459.88
